Time;durP1;ratioP1;P1;durP2;ratioP2;P2;SDS_P1;SDS_P2;PMS_P1;PMS_P2;Temp;Humidity;BMP_temperature;BMP_pressure;BME280_temperature;BME280_humidity;BME280_pressure;Samples;Min_cycle;Max_cycle;Signal;HPM_P1;HPM_P2
2023/04/05 00:01:18;;;;;;;5.90;3.70;;;0.50;94.10;;;;;;5090472;28;20245;-67
2023/04/05 00:03:44;;;;;;;5.25;3.80;;;0.50;96.20;;;;;;5090594;28;20652;-67
2023/04/05 00:06:11;;;;;;;7.30;4.10;;;0.50;96.00;;;;;;5090451;28;20731;-67
2023/04/05 00:08:37;;;;;;;8.20;4.65;;;0.60;95.70;;;;;;5089208;28;20185;-67
2023/04/05 00:11:03;;;;;;;4.53;3.83;;;0.50;95.80;;;;;;5090048;28;20182;-67
2023/04/05 00:13:29;;;;;;;6.20;4.00;;;0.40;95.80;;;;;;5090210;28;20210;-67
2023/04/05 00:15:57;;;;;;;5.53;4.03;;;0.50;96.30;;;;;;5090447;28;20264;-67
2023/04/05 00:18:22;;;;;;;7.63;4.70;;;0.40;96.20;;;;;;5072088;28;20673;-67
2023/04/05 00:20:52;;;;;;;9.53;4.67;;;0.40;97.30;;;;;;5090181;28;20239;-67
2023/04/05 00:23:19;;;;;;;6.75;5.07;;;0.40;97.00;;;;;;5090155;28;20206;-68
2023/04/05 00:25:46;;;;;;;7.05;5.80;;;0.40;96.20;;;;;;5090255;28;20619;-67
2023/04/05 00:28:12;;;;;;;10.93;4.53;;;0.40;96.00;;;;;;5090174;28;20178;-67
2023/04/05 00:30:38;;;;;;;5.72;3.90;;;0.40;95.90;;;;;;5090012;28;20866;-67
2023/04/05 00:33:04;;;;;;;9.00;4.15;;;0.40;95.90;;;;;;5089957;28;20252;-67
2023/04/05 00:35:30;;;;;;;6.65;3.85;;;0.50;95.60;;;;;;5089924;28;20176;-67
2023/04/05 00:37:56;;;;;;;4.20;3.80;;;0.50;95.20;;;;;;5089825;28;20204;-67
2023/04/05 00:40:22;;;;;;;7.57;4.35;;;0.50;95.60;;;;;;5089582;28;20268;-67
2023/04/05 00:42:48;;;;;;;5.97;4.00;;;0.50;95.00;;;;;;5089603;28;20207;-67
2023/04/05 00:45:13;;;;;;;4.27;3.87;;;0.40;94.50;;;;;;5089721;28;20185;-67
2023/04/05 00:47:42;;;;;;;5.33;4.10;;;0.50;95.60;;;;;;5089740;28;20265;-68
2023/04/05 00:50:10;;;;;;;5.63;3.67;;;0.50;95.80;;;;;;5089663;28;20181;-68
2023/04/05 00:52:39;;;;;;;4.80;3.45;;;0.50;96.50;;;;;;5088062;28;20765;-68
2023/04/05 00:55:06;;;;;;;5.97;3.72;;;0.50;96.50;;;;;;5089554;28;20183;-68
2023/04/05 00:57:34;;;;;;;4.30;3.97;;;0.50;96.50;;;;;;5089596;28;20298;-68
2023/04/05 01:00:06;;;;;;;5.13;4.63;;;0.50;97.50;;;;;;5089485;28;20195;-68
2023/04/05 01:02:38;;;;;;;5.78;3.97;;;0.50;96.90;;;;;;5089368;28;20221;-68
2023/04/05 01:05:11;;;;;;;6.00;4.35;;;0.50;97.00;;;;;;5088183;28;20171;-69
2023/04/05 01:07:45;;;;;;;4.95;3.60;;;0.50;97.30;;;;;;5089507;28;20662;-67
2023/04/05 01:10:13;;;;;;;4.07;3.47;;;0.40;97.20;;;;;;5088175;28;20186;-67
2023/04/05 01:12:40;;;;;;;5.97;3.90;;;0.50;97.30;;;;;;5089190;28;20285;-68
2023/04/05 01:15:06;;;;;;;4.80;3.67;;;0.50;97.30;;;;;;5087807;28;20247;-67
2023/04/05 01:17:37;;;;;;;4.38;4.00;;;0.50;97.50;;;;;;5089556;28;20977;-67
2023/04/05 01:20:09;;;;;;;4.65;3.85;;;0.40;97.60;;;;;;5089455;28;20182;-68
2023/04/05 01:23:21;;;;;;;5.97;3.80;;;0.40;97.90;;;;;;5089468;28;20694;-68
2023/04/05 01:25:47;;;;;;;8.85;4.80;;;0.50;99.20;;;;;;5058756;28;20191;-68
2023/04/05 01:28:34;;;;;;;5.43;4.83;;;0.40;99.90;;;;;;5089825;28;20290;-68
2023/04/05 01:31:40;;;;;;;5.15;4.65;;;0.40;99.90;;;;;;5089606;28;20179;-68
2023/04/05 01:34:11;;;;;;;6.70;4.78;;;0.30;99.70;;;;;;5088163;28;20190;-68
2023/04/05 01:36:43;;;;;;;6.03;4.20;;;0.20;99.90;;;;;;5089679;28;20190;-68
2023/04/05 01:39:13;;;;;;;5.00;3.83;;;0.20;99.90;;;;;;5089583;28;20206;-67
2023/04/05 01:41:39;;;;;;;9.60;5.57;;;0.10;99.80;;;;;;5089882;28;20218;-67
2023/04/05 01:44:05;;;;;;;6.00;4.80;;;0.10;99.90;;;;;;5089143;28;20808;-67
2023/04/05 01:46:31;;;;;;;7.80;4.93;;;0.20;99.90;;;;;;5089064;28;20459;-67
2023/04/05 01:48:57;;;;;;;5.63;4.53;;;0.20;99.90;;;;;;5087392;28;20190;-67
2023/04/05 01:51:22;;;;;;;8.13;4.97;;;0.20;99.90;;;;;;5088635;28;20199;-67
2023/04/05 01:53:48;;;;;;;5.07;3.93;;;0.10;99.90;;;;;;5089152;28;20261;-67
2023/04/05 01:56:14;;;;;;;6.57;4.67;;;0.10;99.90;;;;;;5088836;28;20189;-67
2023/04/05 01:58:39;;;;;;;5.03;4.30;;;0.10;99.90;;;;;;5088695;28;20187;-67
2023/04/05 02:01:05;;;;;;;7.23;4.40;;;0.00;99.90;;;;;;5088505;28;20690;-67
2023/04/05 02:03:30;;;;;;;9.10;5.07;;;0.00;99.90;;;;;;5088789;28;20172;-68
2023/04/05 02:05:57;;;;;;;7.40;4.90;;;0.00;99.90;;;;;;5088578;28;20180;-68
2023/04/05 02:08:22;;;;;;;6.95;4.85;;;0.00;99.90;;;;;;5088747;28;20170;-68
2023/04/05 02:10:48;;;;;;;4.83;3.83;;;-0.10;99.90;;;;;;5088510;28;20281;-68
2023/04/05 02:13:14;;;;;;;7.00;4.80;;;-0.10;99.90;;;;;;5088478;28;20226;-67
2023/04/05 02:15:46;;;;;;;11.37;5.00;;;-0.20;99.90;;;;;;5088362;28;20178;-68
2023/04/05 02:18:12;;;;;;;6.85;4.72;;;-0.30;99.90;;;;;;5088531;28;20185;-68
2023/04/05 02:20:37;;;;;;;9.27;4.43;;;-0.20;99.90;;;;;;5088403;28;20737;-68
2023/04/05 02:23:03;;;;;;;6.00;4.50;;;-0.30;99.90;;;;;;5088442;28;20209;-68
2023/04/05 02:25:29;;;;;;;6.20;4.37;;;-0.40;99.90;;;;;;5088598;28;20193;-68
2023/04/05 02:27:54;;;;;;;7.57;5.20;;;-0.40;99.90;;;;;;5087228;28;20187;-68
2023/04/05 02:30:20;;;;;;;6.30;4.70;;;-0.40;99.90;;;;;;5088467;28;20189;-69
2023/04/05 02:32:46;;;;;;;6.80;4.73;;;-0.40;99.90;;;;;;5088424;28;20237;-69
2023/04/05 02:35:11;;;;;;;4.87;4.20;;;-0.50;99.90;;;;;;5088553;28;20716;-68
2023/04/05 02:37:37;;;;;;;5.30;3.83;;;-0.60;99.90;;;;;;5088353;28;20225;-69
2023/04/05 02:40:08;;;;;;;5.25;3.75;;;-0.60;99.90;;;;;;5086946;28;20239;-68
2023/04/05 02:42:35;;;;;;;10.30;4.65;;;-0.60;99.90;;;;;;5088174;28;20237;-68
2023/04/05 02:45:00;;;;;;;10.50;4.85;;;-0.60;99.90;;;;;;5088209;28;20179;-68
2023/04/05 02:47:26;;;;;;;5.77;4.40;;;-0.60;99.90;;;;;;5088368;28;20247;-68
2023/04/05 02:49:52;;;;;;;8.40;4.97;;;-0.50;99.90;;;;;;5088205;28;20441;-68
2023/04/05 02:52:17;;;;;;;6.67;4.40;;;-0.50;99.90;;;;;;5088181;28;20206;-68
2023/04/05 02:54:43;;;;;;;4.60;4.13;;;-0.50;99.90;;;;;;5086874;28;20175;-68
2023/04/05 02:57:10;;;;;;;10.20;4.67;;;-0.60;99.90;;;;;;5088339;28;20179;-69
2023/04/05 02:59:37;;;;;;;4.47;4.07;;;-0.60;99.90;;;;;;5088152;28;20428;-68
2023/04/05 03:02:04;;;;;;;6.30;4.70;;;-0.60;99.90;;;;;;5088179;28;20213;-68
2023/04/05 03:04:33;;;;;;;7.18;4.65;;;-0.80;99.90;;;;;;5089897;28;20209;-68
2023/04/05 03:07:02;;;;;;;5.85;4.72;;;-0.70;99.90;;;;;;5091847;28;20212;-68
2023/04/05 03:09:32;;;;;;;5.47;4.10;;;-0.70;99.90;;;;;;5091852;28;20653;-68
2023/04/05 03:12:02;;;;;;;6.25;5.00;;;-0.70;99.90;;;;;;5090532;28;20207;-68
2023/04/05 03:14:29;;;;;;;5.82;4.35;;;-0.80;99.90;;;;;;5092071;28;20190;-68
2023/04/05 03:16:55;;;;;;;6.78;4.63;;;-0.80;99.90;;;;;;5092174;28;20591;-68
2023/04/05 03:19:21;;;;;;;7.13;4.70;;;-0.90;99.90;;;;;;5092144;28;20182;-69
2023/04/05 03:21:47;;;;;;;4.97;4.50;;;-0.80;99.90;;;;;;5090592;28;20480;-68
2023/04/05 03:24:13;;;;;;;7.78;4.72;;;-0.80;99.90;;;;;;5092136;28;20986;-68
2023/04/05 03:26:39;;;;;;;5.10;4.55;;;-0.90;99.90;;;;;;5092031;28;20571;-68
2023/04/05 03:29:05;;;;;;;6.20;4.80;;;-0.90;99.90;;;;;;5092048;28;20186;-68
2023/04/05 03:31:31;;;;;;;6.03;4.72;;;-0.90;99.90;;;;;;5091451;28;20210;-68
2023/04/05 03:33:57;;;;;;;6.90;4.33;;;-0.90;99.90;;;;;;5090008;28;20190;-68
2023/04/05 03:36:22;;;;;;;6.87;4.10;;;-0.90;99.90;;;;;;5091509;28;20191;-68
2023/04/05 03:38:50;;;;;;;5.50;4.97;;;-1.00;99.90;;;;;;5091318;28;20202;-68
2023/04/05 03:41:16;;;;;;;6.15;4.20;;;-0.90;99.90;;;;;;5091096;28;20240;-68
2023/04/05 03:43:41;;;;;;;6.43;4.37;;;-1.20;99.90;;;;;;5090857;28;20178;-68
2023/04/05 03:46:07;;;;;;;12.93;5.50;;;-1.40;99.90;;;;;;5091238;28;20190;-68
2023/04/05 03:48:32;;;;;;;11.80;8.10;;;-1.30;99.90;;;;;;5072895;28;20206;-68
2023/04/05 03:50:58;;;;;;;13.30;7.80;;;-1.30;99.90;;;;;;5090832;28;20689;-68
2023/04/05 03:53:25;;;;;;;8.40;5.80;;;-1.20;99.90;;;;;;5089226;28;20186;-68
2023/04/05 03:55:53;;;;;;;6.15;4.75;;;-1.20;99.90;;;;;;5091018;28;20295;-68
2023/04/05 03:58:18;;;;;;;4.70;4.30;;;-1.20;99.90;;;;;;5090652;28;20279;-69
2023/04/05 04:00:44;;;;;;;7.87;5.40;;;-1.20;99.90;;;;;;5090580;28;20218;-68
2023/04/05 04:03:10;;;;;;;11.93;5.17;;;-1.30;99.90;;;;;;5090624;28;20282;-68
2023/04/05 04:05:37;;;;;;;9.73;6.40;;;-1.30;99.90;;;;;;5090808;28;20193;-68
2023/04/05 04:08:05;;;;;;;9.65;7.30;;;-1.20;99.90;;;;;;5090517;28;20414;-68
2023/04/05 04:10:31;;;;;;;7.03;5.20;;;-1.20;99.90;;;;;;5090719;28;20949;-68
2023/04/05 04:12:56;;;;;;;5.60;4.18;;;-1.10;99.90;;;;;;5090345;28;20206;-68
2023/04/05 04:15:22;;;;;;;7.47;4.50;;;-1.20;99.90;;;;;;5090185;28;20188;-69
2023/04/05 04:17:48;;;;;;;4.90;4.43;;;-1.30;99.90;;;;;;5089672;28;20182;-68
2023/04/05 04:20:14;;;;;;;11.93;5.90;;;-1.30;99.90;;;;;;5089259;28;20194;-68
2023/04/05 04:22:39;;;;;;;7.13;5.80;;;-1.40;99.90;;;;;;5087524;28;20221;-69
2023/04/05 04:25:09;;;;;;;11.90;5.43;;;-1.40;99.90;;;;;;5089071;28;20474;-69
2023/04/05 04:27:41;;;;;;;5.95;5.30;;;-1.40;99.90;;;;;;5088847;28;20193;-69
2023/04/05 04:30:12;;;;;;;9.05;5.63;;;-1.40;99.90;;;;;;5089049;28;20174;-68
2023/04/05 04:32:54;;;;;;;9.23;5.63;;;-1.40;99.90;;;;;;5088816;28;20210;-69
2023/04/05 04:35:28;;;;;;;6.10;4.63;;;-1.50;99.90;;;;;;5073248;28;20197;-68
2023/04/05 04:37:58;;;;;;;8.77;5.40;;;-1.60;99.90;;;;;;5088958;28;20582;-69
2023/04/05 04:40:37;;;;;;;11.38;5.70;;;-1.50;99.90;;;;;;5089056;28;20178;-68
2023/04/05 04:43:15;;;;;;;7.10;5.05;;;-1.50;99.90;;;;;;5088685;28;20206;-68
2023/04/05 04:45:45;;;;;;;6.80;5.18;;;-1.40;99.90;;;;;;5088840;28;20190;-69
2023/04/05 04:48:12;;;;;;;7.45;5.55;;;-1.40;99.90;;;;;;5088860;28;20536;-68
2023/04/05 04:50:38;;;;;;;8.23;5.07;;;-1.50;99.90;;;;;;5088711;28;20181;-68
2023/04/05 04:53:04;;;;;;;8.03;5.10;;;-1.40;99.90;;;;;;5087002;28;20206;-68
2023/04/05 04:55:32;;;;;;;9.90;6.20;;;-1.40;99.90;;;;;;5087437;28;21144;-68
2023/04/05 04:57:58;;;;;;;8.55;6.63;;;-1.40;99.90;;;;;;5088986;28;20554;-68
2023/04/05 05:00:25;;;;;;;8.73;6.57;;;-1.50;99.90;;;;;;5086753;28;20571;-69
2023/04/05 05:02:51;;;;;;;8.85;6.53;;;-1.50;99.90;;;;;;5087016;28;20210;-68
2023/04/05 05:05:21;;;;;;;9.68;7.03;;;-1.50;99.90;;;;;;5088533;28;20752;-68
2023/04/05 05:07:47;;;;;;;7.80;5.30;;;-1.40;99.90;;;;;;5088605;28;20189;-68
2023/04/05 05:10:15;;;;;;;14.83;5.60;;;-1.40;99.90;;;;;;5088527;28;20554;-68
2023/04/05 05:12:41;;;;;;;11.90;7.03;;;-1.40;99.90;;;;;;5086872;28;20206;-68
2023/04/05 05:15:07;;;;;;;16.13;7.72;;;-1.30;99.90;;;;;;5088521;28;20209;-68
2023/04/05 05:17:34;;;;;;;9.10;6.75;;;-1.40;99.90;;;;;;5088303;28;20171;-69
2023/04/05 05:20:00;;;;;;;11.02;7.30;;;-1.30;99.90;;;;;;5088087;28;20209;-68
2023/04/05 05:22:26;;;;;;;10.87;7.63;;;-1.30;99.90;;;;;;5088201;28;20214;-68
2023/04/05 05:24:52;;;;;;;11.68;7.07;;;-1.40;99.90;;;;;;5088225;28;21010;-68
2023/04/05 05:27:18;;;;;;;7.15;5.95;;;-1.30;99.90;;;;;;5087615;28;20205;-68
2023/04/05 05:29:43;;;;;;;8.17;6.20;;;-1.30;99.90;;;;;;5088244;28;20209;-68
2023/04/05 05:32:14;;;;;;;8.70;5.87;;;-1.30;99.90;;;;;;5088280;28;20750;-68
2023/04/05 05:34:40;;;;;;;8.90;6.60;;;-1.40;99.90;;;;;;5088493;28;20179;-68
2023/04/05 05:37:08;;;;;;;10.70;6.85;;;-1.30;99.90;;;;;;5086637;28;20297;-68
2023/04/05 05:39:35;;;;;;;10.57;7.15;;;-1.20;99.90;;;;;;5088188;28;20312;-68
2023/04/05 05:42:00;;;;;;;15.00;6.85;;;-1.30;99.90;;;;;;5087981;28;20315;-69
2023/04/05 05:44:27;;;;;;;13.77;9.03;;;-1.20;99.90;;;;;;5088246;28;20277;-68
2023/04/05 05:46:52;;;;;;;10.73;8.00;;;-1.20;99.90;;;;;;5088119;28;20436;-68
2023/04/05 05:49:18;;;;;;;16.23;7.10;;;-1.00;99.90;;;;;;5086872;28;20178;-68
2023/04/05 05:51:43;;;;;;;9.53;7.80;;;-0.80;99.90;;;;;;5088083;28;20226;-68
2023/04/05 05:54:09;;;;;;;27.57;8.60;;;-0.70;99.90;;;;;;5069759;28;20187;-67
2023/04/05 05:56:35;;;;;;;46.90;10.93;;;-0.60;99.90;;;;;;5088046;28;20559;-67
2023/04/05 05:59:00;;;;;;;207.73;30.63;;;-0.40;99.90;;;;;;5088061;28;20228;-67
2023/04/05 06:01:26;;;;;;;472.33;61.37;;;-0.20;99.90;;;;;;5087686;28;20260;-67
2023/04/05 06:03:53;;;;;;;69.07;14.07;;;0.00;99.90;;;;;;5088015;28;20178;-67
2023/04/05 06:06:19;;;;;;;104.15;16.10;;;0.20;99.90;;;;;;5087880;28;20171;-67
2023/04/05 06:08:46;;;;;;;36.03;10.40;;;0.30;99.90;;;;;;5086637;28;20201;-67
2023/04/05 06:11:19;;;;;;;14.43;7.47;;;0.40;99.90;;;;;;5087751;28;20554;-67
2023/04/05 06:13:44;;;;;;;11.95;7.95;;;0.50;99.90;;;;;;5086548;28;20874;-68
2023/04/05 06:16:10;;;;;;;112.17;17.00;;;0.70;99.90;;;;;;5087950;28;20213;-67
2023/04/05 06:18:36;;;;;;;30.53;10.50;;;2.20;99.00;;;;;;5086285;28;20436;-68
2023/04/05 06:21:01;;;;;;;57.63;10.60;;;2.90;94.50;;;;;;5086276;28;20556;-68
2023/04/05 06:23:27;;;;;;;40.33;8.70;;;3.60;94.50;;;;;;5087984;28;20208;-69
2023/04/05 06:25:55;;;;;;;19.60;8.20;;;4.10;91.80;;;;;;5087803;28;20236;-68
2023/04/05 06:28:20;;;;;;;196.68;20.10;;;4.70;91.40;;;;;;5087912;28;20422;-69
2023/04/05 06:30:46;;;;;;;82.10;11.60;;;5.30;88.30;;;;;;5086711;28;20197;-68
2023/04/05 06:33:12;;;;;;;17.43;8.50;;;5.70;86.00;;;;;;5088061;28;20205;-68
2023/04/05 06:35:37;;;;;;;44.07;9.87;;;5.80;81.60;;;;;;5088548;28;20692;-68
2023/04/05 06:38:03;;;;;;;52.37;9.70;;;6.40;81.60;;;;;;5088990;28;20196;-68
2023/04/05 06:40:28;;;;;;;10.40;5.80;;;6.70;78.20;;;;;;5091718;28;20994;-69
2023/04/05 06:42:54;;;;;;;14.90;6.30;;;6.40;76.40;;;;;;5091412;28;20225;-68
2023/04/05 06:45:20;;;;;;;22.27;7.37;;;6.60;77.20;;;;;;5091381;28;20232;-67
2023/04/05 06:47:45;;;;;;;13.30;7.17;;;6.60;75.70;;;;;;5090217;28;20187;-68
2023/04/05 06:50:11;;;;;;;30.13;7.03;;;6.80;75.40;;;;;;5089887;28;20186;-67
2023/04/05 06:52:37;;;;;;;20.13;6.93;;;7.20;74.20;;;;;;5091276;28;20238;-68
2023/04/05 06:55:03;;;;;;;127.37;11.27;;;7.30;73.30;;;;;;5091190;28;20186;-68
2023/04/05 06:57:29;;;;;;;42.43;8.40;;;7.30;73.20;;;;;;5091292;28;20620;-68
2023/04/05 06:59:55;;;;;;;14.23;6.87;;;7.10;71.30;;;;;;5091109;28;20424;-68
2023/04/05 07:02:21;;;;;;;160.80;17.13;;;7.10;71.20;;;;;;5090925;28;20247;-68
2023/04/05 07:04:47;;;;;;;148.17;15.60;;;6.80;74.10;;;;;;5090940;28;20190;-68
2023/04/05 07:07:12;;;;;;;18.30;8.30;;;6.60;74.80;;;;;;5091284;28;20443;-67
2023/04/05 07:09:38;;;;;;;16.97;7.80;;;6.30;74.80;;;;;;5091011;28;20452;-68
2023/04/05 07:12:06;;;;;;;18.23;7.80;;;6.50;74.90;;;;;;5090787;28;20218;-67
2023/04/05 07:14:33;;;;;;;11.63;7.57;;;6.70;74.20;;;;;;5090777;28;21054;-68
2023/04/05 07:16:59;;;;;;;12.20;6.70;;;6.50;73.50;;;;;;5091029;28;20473;-67
2023/04/05 07:19:25;;;;;;;20.30;7.57;;;6.60;73.10;;;;;;5090806;28;20428;-68
2023/04/05 07:21:52;;;;;;;18.37;7.57;;;6.40;74.30;;;;;;5090998;28;20995;-67
2023/04/05 07:24:17;;;;;;;12.17;7.03;;;6.50;72.70;;;;;;5088975;28;20842;-67
2023/04/05 07:26:43;;;;;;;111.03;16.77;;;6.80;72.40;;;;;;5090889;28;20507;-66
2023/04/05 07:29:10;;;;;;;143.83;16.67;;;6.90;72.80;;;;;;5090598;28;20473;-68
2023/04/05 07:31:37;;;;;;;58.07;9.40;;;7.00;72.80;;;;;;5090551;28;20440;-68
2023/04/05 07:34:03;;;;;;;13.80;6.73;;;7.00;72.10;;;;;;5090683;28;20421;-68
2023/04/05 07:36:29;;;;;;;10.90;6.57;;;6.90;71.20;;;;;;5090437;28;20423;-68
2023/04/05 07:38:59;;;;;;;7.53;5.80;;;7.00;72.60;;;;;;5090236;28;20224;-68
2023/04/05 07:41:26;;;;;;;17.07;6.90;;;7.20;71.20;;;;;;5088793;28;20953;-68
2023/04/05 07:43:52;;;;;;;27.17;7.43;;;7.30;70.70;;;;;;5090360;28;20452;-68
2023/04/05 07:46:18;;;;;;;19.93;6.90;;;7.20;71.20;;;;;;5090409;28;20451;-67
2023/04/05 07:48:47;;;;;;;10.83;6.60;;;7.20;71.60;;;;;;5090387;28;20417;-68
2023/04/05 07:51:13;;;;;;;13.60;6.90;;;7.00;72.00;;;;;;5089226;28;20446;-68
2023/04/05 07:53:39;;;;;;;10.13;5.50;;;7.10;69.50;;;;;;5090178;28;20425;-68
2023/04/05 07:56:14;;;;;;;66.93;11.00;;;7.40;70.00;;;;;;5088882;28;20847;-68
2023/04/05 07:58:40;;;;;;;26.47;8.60;;;7.50;69.20;;;;;;5090159;28;20499;-68
2023/04/05 08:01:07;;;;;;;15.70;6.70;;;7.60;68.00;;;;;;5089746;28;20509;-68
2023/04/05 08:03:34;;;;;;;9.43;6.77;;;7.50;65.40;;;;;;5089933;28;20807;-68
2023/04/05 08:06:16;;;;;;;8.67;6.20;;;7.60;65.00;;;;;;5090018;28;20427;-68
2023/04/05 08:08:42;;;;;;;19.33;5.97;;;7.70;64.10;;;;;;5087854;28;20420;-68
2023/04/05 08:11:07;;;;;;;366.67;65.70;;;7.80;64.60;;;;;;5089320;28;20473;-68
2023/04/05 08:13:33;;;;;;;12.23;7.40;;;7.90;63.90;;;;;;5089472;28;20807;-68
2023/04/05 08:16:00;;;;;;;16.63;6.63;;;8.20;63.40;;;;;;5088287;28;20263;-68
2023/04/05 08:18:26;;;;;;;160.80;15.50;;;7.80;63.60;;;;;;5089856;28;20194;-68
2023/04/05 08:20:57;;;;;;;105.17;24.17;;;8.20;65.60;;;;;;5089837;28;20425;-68
2023/04/05 08:23:23;;;;;;;19.27;8.60;;;8.20;65.00;;;;;;5089895;28;20198;-68
2023/04/05 08:25:48;;;;;;;11.80;6.40;;;8.50;64.70;;;;;;5088611;28;20807;-68
2023/04/05 08:28:14;;;;;;;339.80;104.73;;;8.40;64.20;;;;;;5089733;28;20455;-68
2023/04/05 08:30:40;;;;;;;176.83;56.10;;;8.50;65.10;;;;;;5089757;28;20269;-68
2023/04/05 08:33:06;;;;;;;194.57;36.67;;;8.80;65.10;;;;;;5089718;28;20237;-68
2023/04/05 08:35:31;;;;;;;166.33;29.17;;;8.90;64.40;;;;;;5089930;28;20263;-68
2023/04/05 08:37:57;;;;;;;36.07;11.17;;;9.30;64.80;;;;;;5089663;28;20537;-68
2023/04/05 08:40:34;;;;;;;68.90;15.93;;;9.00;62.30;;;;;;5089802;28;20190;-68
2023/04/05 08:43:22;;;;;;;174.10;24.37;;;9.20;64.40;;;;;;5088033;28;20709;-68
2023/04/05 08:45:51;;;;;;;119.57;24.70;;;9.50;63.50;;;;;;5089679;28;20413;-69
2023/04/05 08:48:18;;;;;;;502.10;227.13;;;9.70;62.70;;;;;;5089375;28;20517;-69
2023/04/05 08:50:54;;;;;;;162.87;41.50;;;9.90;61.00;;;;;;5089203;28;20415;-68
2023/04/05 08:53:20;;;;;;;54.50;13.73;;;10.20;59.00;;;;;;5088848;28;20948;-69
2023/04/05 08:55:54;;;;;;;117.53;38.67;;;10.50;57.60;;;;;;5088901;28;20916;-68
2023/04/05 08:58:21;;;;;;;153.27;40.20;;;10.70;56.30;;;;;;5088895;28;20522;-69
2023/04/05 09:00:48;;;;;;;167.90;33.63;;;10.70;54.80;;;;;;5087042;28;20420;-68
2023/04/05 09:03:17;;;;;;;319.90;73.30;;;10.90;54.40;;;;;;5088671;28;20436;-69
2023/04/05 09:05:47;;;;;;;207.33;71.00;;;10.80;53.80;;;;;;5088645;28;20425;-68
2023/04/05 09:08:13;;;;;;;272.43;94.90;;;10.40;53.80;;;;;;5088643;28;20443;-68
2023/04/05 09:10:39;;;;;;;262.97;51.30;;;10.40;53.40;;;;;;5087282;28;20811;-68
2023/04/05 09:13:05;;;;;;;18.37;7.53;;;10.70;53.60;;;;;;5088484;28;20448;-68
2023/04/05 09:15:31;;;;;;;71.67;13.37;;;11.20;53.20;;;;;;5088280;28;20424;-68
2023/04/05 09:17:57;;;;;;;64.07;21.17;;;11.70;52.70;;;;;;5086842;28;20210;-67
2023/04/05 09:20:23;;;;;;;203.10;58.00;;;11.30;49.00;;;;;;5088128;28;20914;-68
2023/04/05 09:22:48;;;;;;;243.87;40.73;;;11.30;47.90;;;;;;5088185;28;20242;-68
2023/04/05 09:25:32;;;;;;;128.93;31.50;;;10.90;45.80;;;;;;5088082;28;20203;-68
2023/04/05 09:27:59;;;;;;;161.20;47.10;;;11.10;45.50;;;;;;5088219;28;20176;-68
2023/04/05 09:30:26;;;;;;;120.53;28.00;;;11.90;44.80;;;;;;5086569;28;20495;-67
2023/04/05 09:32:54;;;;;;;104.13;24.33;;;12.20;44.10;;;;;;5087996;28;20517;-67
2023/04/05 09:35:30;;;;;;;168.00;34.00;;;12.40;43.30;;;;;;5087956;28;20420;-67
2023/04/05 09:38:01;;;;;;;78.33;20.07;;;12.30;44.20;;;;;;5087831;28;20636;-67
2023/04/05 09:40:44;;;;;;;42.20;11.70;;;12.60;43.00;;;;;;5088164;28;20421;-68
2023/04/05 09:43:13;;;;;;;65.63;17.60;;;12.20;43.40;;;;;;5087407;28;21203;-68
2023/04/05 09:45:40;;;;;;;80.90;30.87;;;12.10;42.50;;;;;;5087636;28;21076;-68
2023/04/05 09:48:07;;;;;;;96.97;33.93;;;12.20;42.70;;;;;;5087589;28;20439;-68
2023/04/05 09:50:32;;;;;;;75.13;10.73;;;12.70;42.10;;;;;;5087657;28;20425;-68
2023/04/05 09:53:10;;;;;;;157.07;43.57;;;13.10;41.80;;;;;;5087511;28;20482;-68
2023/04/05 09:55:36;;;;;;;53.40;27.10;;;12.70;40.20;;;;;;5087570;28;20225;-67
2023/04/05 09:58:02;;;;;;;24.97;12.97;;;12.70;41.00;;;;;;5087486;28;20426;-68
2023/04/05 10:00:30;;;;;;;7.47;5.67;;;12.50;41.70;;;;;;5087405;28;20425;-68
2023/04/05 10:02:55;;;;;;;81.93;17.07;;;13.00;42.10;;;;;;5087325;28;20481;-68
2023/04/05 10:05:26;;;;;;;25.63;8.03;;;13.20;41.40;;;;;;5087640;28;20418;-68
2023/04/05 10:07:54;;;;;;;390.67;78.20;;;13.50;40.60;;;;;;5087379;28;20187;-68
2023/04/05 10:10:21;;;;;;;327.77;64.33;;;13.30;40.30;;;;;;5087454;28;20425;-69
2023/04/05 10:12:48;;;;;;;137.93;19.57;;;13.10;40.40;;;;;;5087873;28;20575;-68
2023/04/05 10:15:15;;;;;;;41.07;12.73;;;13.30;40.40;;;;;;5091801;28;20472;-68
2023/04/05 10:17:52;;;;;;;433.60;134.00;;;13.40;40.70;;;;;;5091266;28;20982;-69
2023/04/05 10:20:22;;;;;;;163.07;53.67;;;13.70;39.80;;;;;;5091289;28;20506;-68
2023/04/05 10:22:56;;;;;;;229.53;46.83;;;13.40;39.60;;;;;;5091065;28;20464;-69
2023/04/05 10:25:25;;;;;;;37.77;11.93;;;13.60;39.70;;;;;;5089666;28;20434;-68
2023/04/05 10:27:58;;;;;;;118.37;31.03;;;13.70;39.80;;;;;;5089664;28;20923;-68
2023/04/05 10:30:29;;;;;;;14.70;6.17;;;13.80;40.00;;;;;;5091410;28;20415;-69
2023/04/05 10:33:20;;;;;;;33.07;10.63;;;13.90;39.50;;;;;;5090923;28;20436;-68
2023/04/05 10:36:00;;;;;;;111.97;32.53;;;13.70;37.90;;;;;;5089730;28;20427;-68
2023/04/05 10:38:27;;;;;;;20.03;7.10;;;14.00;38.50;;;;;;5091055;28;20451;-68
2023/04/05 10:41:08;;;;;;;56.10;7.50;;;13.90;38.50;;;;;;5091087;28;21063;-67
2023/04/05 10:43:36;;;;;;;16.53;6.10;;;14.10;38.00;;;;;;5091221;28;20414;-68
2023/04/05 10:46:03;;;;;;;15.73;6.10;;;14.20;36.60;;;;;;5091099;28;20420;-67
2023/04/05 10:48:56;;;;;;;78.83;14.10;;;14.00;36.20;;;;;;5091357;28;20509;-68
2023/04/05 10:51:25;;;;;;;10.63;7.40;;;14.00;36.70;;;;;;5089961;28;20449;-68
2023/04/05 10:53:51;;;;;;;172.00;71.07;;;13.40;36.50;;;;;;5091843;28;20435;-67
2023/04/05 10:56:19;;;;;;;133.47;29.77;;;12.80;37.10;;;;;;5091362;28;20522;-67
2023/04/05 10:58:46;;;;;;;31.63;10.20;;;12.60;38.20;;;;;;5091014;28;20421;-68
2023/04/05 11:01:16;;;;;;;11.57;5.77;;;12.90;38.80;;;;;;5090645;28;20997;-68
2023/04/05 11:03:46;;;;;;;9.20;5.77;;;13.10;38.50;;;;;;5090370;28;20454;-69
2023/04/05 11:06:23;;;;;;;10.77;4.90;;;12.80;38.80;;;;;;5090830;28;20452;-69
2023/04/05 11:08:52;;;;;;;7.00;5.07;;;13.10;38.90;;;;;;5090590;28;20418;-69
2023/04/05 11:11:21;;;;;;;8.70;4.67;;;13.50;36.90;;;;;;5089365;28;20879;-69
2023/04/05 11:13:57;;;;;;;7.17;5.07;;;13.70;36.90;;;;;;5089711;28;20422;-69
2023/04/05 11:16:37;;;;;;;29.07;6.57;;;13.90;35.50;;;;;;5090252;28;20408;-69
2023/04/05 11:19:02;;;;;;;27.57;6.13;;;14.30;36.60;;;;;;5089882;28;20423;-69
2023/04/05 11:21:30;;;;;;;230.47;22.17;;;14.60;36.60;;;;;;5089645;28;20622;-69
2023/04/05 11:24:05;;;;;;;27.90;6.43;;;14.50;36.40;;;;;;5089361;28;20219;-68
2023/04/05 11:26:55;;;;;;;514.83;39.60;;;14.50;36.20;;;;;;5088896;28;20514;-69
2023/04/05 11:29:48;;;;;;;372.77;27.47;;;14.50;35.90;;;;;;5072040;28;20547;-68
2023/04/05 11:32:14;;;;;;;76.83;8.53;;;14.90;37.40;;;;;;5089576;28;20542;-68
2023/04/05 11:34:42;;;;;;;13.13;5.80;;;14.90;35.60;;;;;;5089400;28;20426;-68
2023/04/05 11:37:07;;;;;;;7.67;4.80;;;14.80;35.40;;;;;;5089088;28;20422;-69
2023/04/05 11:39:33;;;;;;;8.17;5.50;;;13.80;34.80;;;;;;5089506;28;20506;-69
2023/04/05 11:42:08;;;;;;;8.13;5.43;;;13.50;36.10;;;;;;5089257;28;20232;-69
2023/04/05 11:44:46;;;;;;;6.87;5.07;;;14.00;37.70;;;;;;5087855;28;20233;-68
2023/04/05 11:47:15;;;;;;;7.13;5.23;;;14.50;37.40;;;;;;5089349;28;20454;-67
2023/04/05 11:49:41;;;;;;;8.57;4.83;;;14.80;36.50;;;;;;5087672;28;20986;-69
2023/04/05 11:52:25;;;;;;;8.30;5.47;;;14.80;35.20;;;;;;5087537;28;20456;-69
2023/04/05 11:54:51;;;;;;;8.37;6.40;;;15.20;36.50;;;;;;5087744;28;20232;-68
2023/04/05 11:57:21;;;;;;;10.77;7.37;;;15.50;34.30;;;;;;5089193;28;20434;-68
2023/04/05 11:59:50;;;;;;;5.30;4.80;;;15.80;33.50;;;;;;5088940;28;20424;-68
2023/04/05 12:02:16;;;;;;;6.40;4.93;;;15.60;32.70;;;;;;5087432;28;20487;-69
2023/04/05 12:04:41;;;;;;;16.30;6.43;;;15.40;34.50;;;;;;5089507;28;20495;-69
2023/04/05 12:07:18;;;;;;;8.23;6.73;;;14.80;31.60;;;;;;5089361;28;20934;-69
2023/04/05 12:10:03;;;;;;;10.97;7.07;;;14.30;33.90;;;;;;5089513;28;20258;-69
2023/04/05 12:12:42;;;;;;;11.63;5.70;;;14.50;35.40;;;;;;5089329;28;20520;-69
2023/04/05 12:15:17;;;;;;;10.80;5.90;;;14.60;35.70;;;;;;5089217;28;20412;-69
2023/04/05 12:17:51;;;;;;;5.60;4.97;;;14.90;35.60;;;;;;5088002;28;20431;-69
2023/04/05 12:20:23;;;;;;;5.40;4.90;;;15.20;35.00;;;;;;5089542;28;20881;-68
2023/04/05 12:22:51;;;;;;;8.57;5.50;;;15.30;34.70;;;;;;5087789;28;20490;-69
2023/04/05 12:25:17;;;;;;;7.37;5.53;;;15.00;34.70;;;;;;5089487;28;21219;-69
2023/04/05 12:27:44;;;;;;;8.50;5.20;;;14.90;34.20;;;;;;5089554;28;20423;-69
2023/04/05 12:30:20;;;;;;;7.50;5.50;;;15.10;35.70;;;;;;5089428;28;20408;-69
2023/04/05 12:32:46;;;;;;;6.13;5.00;;;15.00;35.50;;;;;;5089154;28;20975;-69
2023/04/05 12:35:31;;;;;;;9.80;5.33;;;15.10;34.70;;;;;;5089192;28;20451;-68
2023/04/05 12:38:00;;;;;;;5.73;5.13;;;15.10;32.50;;;;;;5088503;28;20282;-68
2023/04/05 12:40:29;;;;;;;10.17;4.70;;;15.70;34.50;;;;;;5088759;28;20427;-69
2023/04/05 12:43:07;;;;;;;11.77;5.37;;;16.10;34.50;;;;;;5087258;28;20480;-70
2023/04/05 12:45:38;;;;;;;8.17;5.30;;;16.20;34.10;;;;;;5088919;28;20408;-70
2023/04/05 12:48:14;;;;;;;12.47;5.67;;;16.00;32.60;;;;;;5088528;28;20423;-70